This is the latest recevied weather packets stored in our database for station/object OE5HCE. If no packets are shown the sender has not sent any weather packets the latest 10 day(s).
| Time | Temp. | Humidity | Pressure | Rain* | Wind** | Luminosity | Snow |
|---|---|---|---|---|---|---|---|
| 1788036302 | 18.33° C | 76% | 1016.5 hPa | 0 mm | - | 0 W/m² | - |
| 1788035401 | 18.89° C | 75% | 1016.5 hPa | 0 mm | - | 0 W/m² | - |
| 1788034580 | 18.89° C | 74% | 1016.5 hPa | 0 mm | - | 0 W/m² | - |
| 1788033659 | 19.44° C | 73% | 1016.5 hPa | 0 mm | - | 0 W/m² | - |
| 1788032759 | 20° C | 73% | 1016.6 hPa | 0 mm | - | 0 W/m² | - |
| 1788031865 | 20° C | 72% | 1016.6 hPa | 0 mm | - | 0 W/m² | - |
| 1788030957 | 20.56° C | 70% | 1016.6 hPa | 0 mm | - | 0 W/m² | - |
| 1788030057 | 21.11° C | 68% | 1016.5 hPa | 0 mm | - | 0 W/m² | - |
| 1788029160 | 21.11° C | 66% | 1016.3 hPa | 0 mm | - | 0 W/m² | - |
| 1788028255 | 21.67° C | 66% | 1016.3 hPa | 0 mm | - | 0 W/m² | - |
| 1788027355 | 21.67° C | 65% | 1016.2 hPa | 0 mm | - | 0 W/m² | - |
| 1788026454 | 22.22° C | 64% | 1016 hPa | 0 mm | - | 0 W/m² | - |
| 1788025553 | 22.22° C | 63% | 1016.1 hPa | 0 mm | - | 0 W/m² | - |
| 1788024651 | 22.78° C | 62% | 1016.3 hPa | 0 mm | - | 14 W/m² | - |
| 1788023762 | 22.78° C | 61% | 1016.3 hPa | 0 mm | - | 18 W/m² | - |
| 1788022850 | 23.33° C | 59% | 1016.3 hPa | 0 mm | - | 40 W/m² | - |
| 1788021952 | 23.33° C | 60% | 1016.3 hPa | 0 mm | - | 74 W/m² | - |
| 1788021056 | 23.33° C | 60% | 1016.5 hPa | 0 mm | - | 86 W/m² | - |
| 1788020168 | 23.89° C | 58% | 1016.3 hPa | 0 mm | - | 53 W/m² | - |
| 1788019247 | 24.44° C | 57% | 1016.3 hPa | 0 mm | - | 69 W/m² | - |
| 1788018356 | 26.11° C | 50% | 1016.4 hPa | 0 mm | - | 102 W/m² | - |
| 1788017445 | 26.11° C | 49% | 1016.4 hPa | 0 mm | - | 223 W/m² | - |
| 1788016545 | 25° C | 57% | 1016.4 hPa | 0 mm | - | 229 W/m² | - |
| 1788015644 | 25° C | 52% | 1016.4 hPa | 0 mm | - | 76 W/m² | - |
| 1788014744 | 26.67° C | 54% | 1016.5 hPa | 0 mm | - | 478 W/m² | - |
* Rain latest hour (hover to see other rain measurements)
** Current wind speed in m/s (hover to see current wind gust speed)